DLS weather

Columbia Gorge Regional the Dalles Municipal Airport
The Dalles, Oregon, United States

Public forecast

Using degrees Fahrenheit for public forecast. Weather courtesy of forecast.io.

Current aviation weather report (METAR) for Columbia Gorge Regional the Dalles Municipal Airport

Retrieved 2020/05/25 18:53 UTC (58 minutes ago):

KDLS 251853Z AUTO 31010KT 10SM SCT050 OVC060 18/11 A3005 RMK AO2 SLP176 T01780111

Aviation forecast (TAF) for Columbia Gorge Regional the Dalles Municipal Airport

Retrieved 2020/05/25 18:39 UTC (1 hour ago):

TAF KDLS 251736Z 2518/2618 31011G19KT P6SM VCSH SCT060 OVC090 FM260200 30010KT P6SM SCT090 FM260900 31007KT P6SM SCT250 FM261730 31015G23KT P6SM BKN250